Time;durP1;ratioP1;P1;durP2;ratioP2;P2;SDS_P1;SDS_P2;PMS_P1;PMS_P2;Temp;Humidity;BMP_temperature;BMP_pressure;BME280_temperature;BME280_humidity;BME280_pressure;Samples;Min_cycle;Max_cycle;Signal;HPM_P1;HPM_P2
2022/12/15 00:40:10;;;;;;;;;;;;;;;28.04;46.05;96061.17;612207;232;64576;-66
2022/12/15 00:42:37;;;;;;;;;;;;;;;28.03;46.15;96059.61;612205;232;65222;-67
2022/12/15 00:45:05;;;;;;;;;;;;;;;28.01;47.28;96071.88;612148;232;66897;-67
2022/12/15 00:47:33;;;;;;;;;;;;;;;28.01;46.00;96061.86;612192;232;66501;-67
2022/12/15 01:20:26;;;;;;;;;;;;;;;27.91;44.49;96065.05;612168;232;64863;-68
2022/12/15 01:22:54;;;;;;;;;;;;;;;27.91;45.91;96046.14;612157;232;63817;-69
2022/12/15 01:25:24;;;;;;;;;;;;;;;27.90;46.26;96047.25;612211;232;64663;-69
2022/12/15 01:27:51;;;;;;;;;;;;;;;27.88;47.29;96031.41;612128;232;66492;-69
2022/12/15 01:30:20;;;;;;;;;;;;;;;27.88;46.56;96030.59;612164;232;65064;-69
2022/12/15 01:32:48;;;;;;;;;;;;;;;27.87;46.07;96013.61;612157;232;64819;-69
2022/12/15 01:35:16;;;;;;;;;;;;;;;27.87;45.66;95999.33;612087;232;64912;-69
2022/12/15 01:37:44;;;;;;;;;;;;;;;27.86;46.58;95985.05;612153;232;65066;-69
2022/12/15 01:42:59;;;;;;;;;;;;;;;27.85;47.76;95963.78;612168;232;66860;-68
2022/12/15 01:45:31;;;;;;;;;;;;;;;27.83;46.34;95947.94;612156;232;65114;-69
2022/12/15 01:48:05;;;;;;;;;;;;;;;27.81;46.15;95936.69;612149;232;66877;-69
2022/12/15 01:50:34;;;;;;;;;;;;;;;27.81;46.86;95927.81;612106;232;66916;-69
2022/12/15 01:53:02;;;;;;;;;;;;;;;27.80;46.58;95910.83;612112;232;63026;-69
2022/12/15 01:55:30;;;;;;;;;;;;;;;27.79;47.95;95897.62;612169;232;64588;-69
2022/12/15 01:57:59;;;;;;;;;;;;;;;27.78;47.66;95874.47;612126;232;64844;-66
2022/12/15 02:00:26;;;;;;;;;;;;;;;27.78;47.45;95914.97;612088;232;62606;-66
2022/12/15 02:02:54;;;;;;;;;;;;;;;27.77;47.01;95932.27;612119;232;67472;-66
2022/12/15 02:05:22;;;;;;;;;;;;;;;27.76;46.16;95938.81;612110;232;67036;-66
2022/12/15 02:07:49;;;;;;;;;;;;;;;27.76;45.67;95936.11;612173;232;65028;-66
2022/12/15 02:10:17;;;;;;;;;;;;;;;27.74;46.40;95949.94;612127;232;67285;-66
2022/12/15 02:13:04;;;;;;;;;;;;;;;27.73;46.78;95936.80;612097;232;67070;-66
2022/12/15 02:15:50;;;;;;;;;;;;;;;27.73;46.44;95936.80;612067;231;63078;-66
2022/12/15 02:18:34;;;;;;;;;;;;;;;27.71;48.11;95947.14;612141;232;67264;-67
2022/12/15 02:21:09;;;;;;;;;;;;;;;27.68;48.39;95938.59;612108;232;66916;-67
2022/12/15 02:23:51;;;;;;;;;;;;;;;27.68;48.01;95946.69;612112;232;65478;-67
2022/12/15 02:26:38;;;;;;;;;;;;;;;27.67;46.91;95950.52;612146;232;67179;-67
2022/12/15 02:29:22;;;;;;;;;;;;;;;27.65;46.49;95957.38;612188;232;67034;-67
2022/12/15 02:31:52;;;;;;;;;;;;;;;27.63;47.91;95949.61;612145;232;63160;-67
2022/12/15 02:34:22;;;;;;;;;;;;;;;27.62;47.72;95936.48;612077;232;72744;-67
2022/12/15 02:36:51;;;;;;;;;;;;;;;27.60;47.78;95950.30;612142;232;67040;-67
2022/12/15 02:39:19;;;;;;;;;;;;;;;27.61;47.36;95956.47;612052;232;63129;-67
2022/12/15 02:41:50;;;;;;;;;;;;;;;27.60;47.80;95944.12;612093;232;67270;-67
2022/12/15 02:44:27;;;;;;;;;;;;;;;27.58;46.54;95968.77;612125;232;65400;-67
2022/12/15 02:47:14;;;;;;;;;;;;;;;27.57;48.25;95955.59;606525;232;62943;-66
2022/12/15 02:49:50;;;;;;;;;;;;;;;27.56;47.35;95954.81;612128;232;65004;-67
2022/12/15 02:52:22;;;;;;;;;;;;;;;27.55;46.98;95953.22;612078;232;65257;-67
2022/12/15 02:54:59;;;;;;;;;;;;;;;27.54;47.16;95965.16;612100;232;65258;-67
2022/12/15 02:57:28;;;;;;;;;;;;;;;27.53;47.59;95971.69;611924;231;67271;-65
2022/12/15 03:00:00;;;;;;;;;;;;;;;27.51;48.10;95960.44;612005;231;67169;-65
2022/12/15 03:02:29;;;;;;;;;;;;;;;27.49;47.27;95973.47;611875;231;62912;-66
2022/12/15 03:04:57;;;;;;;;;;;;;;;27.48;48.04;95977.31;612061;232;67255;-66
2022/12/15 03:07:26;;;;;;;;;;;;;;;27.47;48.08;95989.20;612122;232;67015;-66
2022/12/15 03:09:58;;;;;;;;;;;;;;;27.45;49.14;95991.48;612124;232;62966;-66
2022/12/15 03:12:26;;;;;;;;;;;;;;;27.47;47.08;95991.91;612124;232;64765;-66
2022/12/15 03:14:54;;;;;;;;;;;;;;;27.44;47.12;95989.89;612163;232;66890;-66
2022/12/15 03:17:21;;;;;;;;;;;;;;;27.44;47.98;96000.68;612079;232;65031;-66
2022/12/15 03:19:49;;;;;;;;;;;;;;;27.44;47.52;96003.38;612121;232;67452;-66
2022/12/15 03:22:16;;;;;;;;;;;;;;;27.42;46.88;96016.44;612128;232;67002;-66
2022/12/15 03:24:44;;;;;;;;;;;;;;;27.41;47.64;96029.12;612106;232;65129;-66
2022/12/15 03:27:11;;;;;;;;;;;;;;;27.40;47.88;96010.59;612143;232;67254;-66
2022/12/15 03:29:39;;;;;;;;;;;;;;;27.40;48.94;96011.37;612088;232;66912;-69
2022/12/15 03:32:07;;;;;;;;;;;;;;;27.37;47.80;96025.53;612103;232;65110;-69
2022/12/15 03:34:35;;;;;;;;;;;;;;;27.37;46.86;96033.62;612135;232;67194;-69
2022/12/15 03:37:02;;;;;;;;;;;;;;;27.37;47.73;96043.64;612130;232;64865;-69
2022/12/15 03:39:30;;;;;;;;;;;;;;;27.35;48.24;96056.67;612168;232;64935;-69
2022/12/15 03:41:57;;;;;;;;;;;;;;;27.35;46.89;96056.67;612096;232;67346;-69
2022/12/15 03:44:25;;;;;;;;;;;;;;;27.34;47.96;96055.89;612111;232;66993;-69
2022/12/15 03:46:52;;;;;;;;;;;;;;;27.32;47.97;96071.61;612109;232;65110;-69
2022/12/15 03:49:19;;;;;;;;;;;;;;;27.32;48.95;96073.53;612102;232;67093;-68
2022/12/15 03:51:47;;;;;;;;;;;;;;;27.31;48.36;96071.93;612103;232;64840;-69
2022/12/15 03:54:14;;;;;;;;;;;;;;;27.29;47.43;96079.59;612174;232;63034;-69
2022/12/15 03:56:43;;;;;;;;;;;;;;;27.28;47.23;96086.09;612107;232;64968;-66
2022/12/15 03:59:10;;;;;;;;;;;;;;;27.28;47.76;96069.91;612122;232;66840;-66
2022/12/15 04:01:38;;;;;;;;;;;;;;;27.27;47.04;96054.86;612109;232;65105;-68
2022/12/15 04:04:05;;;;;;;;;;;;;;;27.27;47.75;96049.46;612134;232;67227;-69
2022/12/15 04:06:33;;;;;;;;;;;;;;;27.24;47.89;96067.10;612144;232;67297;-69
2022/12/15 04:09:00;;;;;;;;;;;;;;;27.23;47.24;96074.41;612138;232;65119;-68
2022/12/15 04:11:28;;;;;;;;;;;;;;;27.21;48.33;96062.38;612094;232;67246;-69
2022/12/15 04:13:55;;;;;;;;;;;;;;;27.22;48.05;96069.34;612157;232;67076;-66
2022/12/15 04:16:23;;;;;;;;;;;;;;;27.20;48.00;96093.15;612136;232;65089;-66
2022/12/15 04:20:07;;;;;;;;;;;;;;;27.19;47.81;96102.38;612179;232;67219;-66
2022/12/15 04:21:19;;;;;;;;;;;;;;;27.18;47.31;96101.59;611451;232;64958;-66
2022/12/15 05:32:50;;;;;;;;;;;;;;;26.87;49.59;96290.72;611255;232;49803;-69
2022/12/15 05:35:17;;;;;;;;;;;;;;;26.86;49.32;96277.58;611259;232;66835;-70
2022/12/15 05:37:45;;;;;;;;;;;;;;;26.86;49.23;96288.36;611249;232;62991;-69
2022/12/15 05:40:12;;;;;;;;;;;;;;;26.85;50.06;96287.58;611228;232;65041;-69
2022/12/15 05:42:40;;;;;;;;;;;;;;;26.85;50.26;96309.15;611230;232;64929;-69
2022/12/15 05:45:09;;;;;;;;;;;;;;;26.85;49.41;96319.14;611178;232;62963;-69
2022/12/15 05:47:36;;;;;;;;;;;;;;;26.85;48.18;96321.84;611277;232;64855;-69
2022/12/15 05:50:04;;;;;;;;;;;;;;;26.85;48.15;96327.23;611214;232;66863;-69
2022/12/15 05:52:31;;;;;;;;;;;;;;;26.85;51.38;96330.71;611136;232;64904;-69
2022/12/15 05:54:59;;;;;;;;;;;;;;;26.85;49.12;96328.02;611199;232;65233;-69
2022/12/15 05:57:26;;;;;;;;;;;;;;;26.87;49.01;96346.55;611236;232;64907;-69
2022/12/15 05:59:54;;;;;;;;;;;;;;;26.86;50.60;96347.67;611234;232;63055;-68
2022/12/15 06:02:21;;;;;;;;;;;;;;;26.87;50.63;96357.33;611258;232;67205;-69
2022/12/15 06:04:49;;;;;;;;;;;;;;;26.87;49.71;96354.64;611242;232;67154;-69
2022/12/15 06:07:16;;;;;;;;;;;;;;;26.86;49.64;96353.06;611217;232;65091;-69
2022/12/15 06:09:44;;;;;;;;;;;;;;;26.88;48.18;96367.02;611255;232;64895;-69
2022/12/15 06:12:11;;;;;;;;;;;;;;;26.89;49.14;96365.89;611245;232;64759;-69
2022/12/15 06:14:39;;;;;;;;;;;;;;;26.89;49.78;96360.50;610817;232;62993;-69
2022/12/15 06:17:06;;;;;;;;;;;;;;;26.90;49.50;96367.46;610054;232;65090;-69
2022/12/15 06:19:34;;;;;;;;;;;;;;;26.90;49.51;96373.67;610268;232;64644;-69
2022/12/15 06:22:01;;;;;;;;;;;;;;;26.90;47.59;96378.25;610791;232;63825;-68
2022/12/15 06:24:28;;;;;;;;;;;;;;;26.91;47.53;96391.41;610808;232;67216;-68
2022/12/15 06:26:56;;;;;;;;;;;;;;;26.93;48.51;96399.98;610947;232;64926;-69
2022/12/15 06:29:25;;;;;;;;;;;;;;;26.95;49.95;96402.33;611579;231;43912;-69
2022/12/15 06:31:53;;;;;;;;;;;;;;;26.96;49.24;96401.23;611833;232;64842;-68
2022/12/15 06:34:21;;;;;;;;;;;;;;;26.97;49.23;96408.20;612120;232;64506;-69
2022/12/15 06:36:49;;;;;;;;;;;;;;;26.98;47.74;96397.10;611993;232;65023;-68
2022/12/15 06:39:19;;;;;;;;;;;;;;;26.99;47.91;96397.89;611909;232;46917;-69
2022/12/15 06:41:47;;;;;;;;;;;;;;;27.00;48.35;96407.55;612068;232;67440;-68
2022/12/15 06:44:15;;;;;;;;;;;;;;;27.01;48.35;96398.36;612047;232;65056;-68
2022/12/15 06:46:44;;;;;;;;;;;;;;;27.03;49.13;96400.72;612112;232;67232;-68
2022/12/15 06:49:12;;;;;;;;;;;;;;;27.04;47.11;96397.70;601761;232;68230;-69
2022/12/15 06:51:40;;;;;;;;;;;;;;;27.06;47.47;96410.85;594471;232;68264;-69
2022/12/15 06:54:09;;;;;;;;;;;;;;;27.07;47.67;96407.05;594020;232;66775;-69
2022/12/15 06:56:42;;;;;;;;;;;;;;;27.09;47.42;96400.22;608036;232;67044;-69
2022/12/15 06:59:07;;;;;;;;;;;;;;;27.11;47.62;96394.48;611612;232;64917;-70
2022/12/15 07:01:34;;;;;;;;;;;;;;;27.13;48.29;96400.35;611988;232;66862;-73
2022/12/15 07:04:04;;;;;;;;;;;;;;;27.13;48.97;96401.14;611453;232;66978;-70
2022/12/15 07:06:37;;;;;;;;;;;;;;;27.14;47.80;96388.44;612067;232;63051;-68
2022/12/15 07:09:07;;;;;;;;;;;;;;;27.15;47.79;96393.52;612096;232;67217;-70
2022/12/15 07:11:34;;;;;;;;;;;;;;;27.17;47.31;96412.91;611994;232;66926;-71
2022/12/15 07:14:02;;;;;;;;;;;;;;;27.19;47.61;96393.68;612046;232;62824;-70
2022/12/15 07:16:30;;;;;;;;;;;;;;;27.21;48.53;96396.84;611101;232;67213;-70
2022/12/15 07:18:57;;;;;;;;;;;;;;;27.23;48.15;96411.59;609937;232;66989;-70
2022/12/15 07:21:25;;;;;;;;;;;;;;;27.25;48.25;96418.55;609958;232;65212;-69
2022/12/15 07:23:52;;;;;;;;;;;;;;;27.27;46.94;96427.91;610011;232;67313;-70
2022/12/15 07:26:20;;;;;;;;;;;;;;;27.30;46.87;96429.16;609935;232;67162;-69
2022/12/15 07:28:48;;;;;;;;;;;;;;;27.31;47.66;96442.34;608976;232;65032;-68
2022/12/15 07:31:15;;;;;;;;;;;;;;;27.31;45.67;96436.13;608716;233;67100;-70
2022/12/15 07:33:43;;;;;;;;;;;;;;;27.29;47.40;96441.08;608720;233;66931;-71
2022/12/15 07:36:10;;;;;;;;;;;;;;;27.28;46.27;96432.17;608781;233;65036;-70
2022/12/15 07:38:38;;;;;;;;;;;;;;;27.30;46.69;96435.34;608738;233;67242;-68
2022/12/15 07:41:07;;;;;;;;;;;;;;;27.31;46.07;96438.83;608783;233;66884;-68
2022/12/15 07:43:35;;;;;;;;;;;;;;;27.32;46.30;96451.22;608828;233;63146;-69
2022/12/15 07:46:03;;;;;;;;;;;;;;;27.32;45.46;96454.70;608747;233;64996;-70
2022/12/15 07:48:31;;;;;;;;;;;;;;;27.35;41.34;96456.75;608798;233;66947;-69
2022/12/15 07:50:59;;;;;;;;;;;;;;;27.36;39.79;96458.31;608807;233;62727;-70
2022/12/15 07:53:27;;;;;;;;;;;;;;;27.38;43.32;96449.91;608764;233;67091;-71
2022/12/15 07:55:57;;;;;;;;;;;;;;;27.41;45.82;96457.34;608781;233;67647;-70
2022/12/15 07:58:26;;;;;;;;;;;;;;;27.41;46.43;96471.63;608799;232;66880;-70
2022/12/15 08:00:55;;;;;;;;;;;;;;;27.42;46.55;96472.44;608530;232;67427;-70
2022/12/15 08:03:23;;;;;;;;;;;;;;;27.43;47.32;96480.19;608668;232;66880;-69
2022/12/15 08:05:50;;;;;;;;;;;;;;;27.45;47.95;96466.39;608821;233;62889;-69
2022/12/15 08:08:18;;;;;;;;;;;;;;;27.46;47.34;96467.95;608776;233;65247;-71
2022/12/15 08:10:45;;;;;;;;;;;;;;;27.47;46.75;96480.32;608855;233;67135;-72
2022/12/15 08:13:13;;;;;;;;;;;;;;;27.48;45.86;96490.02;608812;233;65206;-69
2022/12/15 08:15:41;;;;;;;;;;;;;;;27.50;46.26;96490.49;608723;233;66835;-71
2022/12/15 08:18:10;;;;;;;;;;;;;;;27.53;48.44;96491.72;608837;233;46769;-68
2022/12/15 08:20:38;;;;;;;;;;;;;;;27.55;47.96;96497.59;608795;233;63747;-69
2022/12/15 08:23:05;;;;;;;;;;;;;;;27.56;46.98;96494.58;608792;233;67405;-70
2022/12/15 08:25:33;;;;;;;;;;;;;;;27.58;45.15;96500.45;608742;233;67169;-71
2022/12/15 08:28:03;;;;;;;;;;;;;;;27.61;45.96;96499.80;608710;232;65803;-69
2022/12/15 08:30:33;;;;;;;;;;;;;;;27.63;48.79;96494.05;608765;233;67367;-68
2022/12/15 08:33:00;;;;;;;;;;;;;;;27.61;44.10;96497.09;608747;233;66991;-68
2022/12/15 08:35:28;;;;;;;;;;;;;;;27.62;48.06;96501.36;608746;233;63213;-69
2022/12/15 08:37:56;;;;;;;;;;;;;;;27.62;46.00;96497.88;608855;233;64995;-70
2022/12/15 08:40:24;;;;;;;;;;;;;;;27.62;46.12;96511.38;608108;230;64887;-73
2022/12/15 08:42:51;;;;;;;;;;;;;;;27.60;47.06;96506.29;608057;232;65054;-71
2022/12/15 08:45:19;;;;;;;;;;;;;;;27.60;40.88;96505.50;608622;232;67221;-69
2022/12/15 08:47:48;;;;;;;;;;;;;;;27.63;42.74;96502.15;607593;233;66907;-68
2022/12/15 08:50:15;;;;;;;;;;;;;;;27.66;47.46;96498.79;608713;233;65047;-68
2022/12/15 08:52:43;;;;;;;;;;;;;;;27.68;47.06;96493.86;608428;233;67251;-69
2022/12/15 08:55:10;;;;;;;;;;;;;;;27.68;46.31;96486.55;608778;233;66932;-71
2022/12/15 08:57:39;;;;;;;;;;;;;;;27.72;45.82;96480.49;608729;233;65094;-68
2022/12/15 09:00:07;;;;;;;;;;;;;;;27.70;41.15;96483.53;608824;233;67281;-70
2022/12/15 09:02:35;;;;;;;;;;;;;;;27.68;45.52;96480.36;608883;233;66577;-71
2022/12/15 09:05:05;;;;;;;;;;;;;;;27.66;46.24;96480.71;608754;233;65087;-70
2022/12/15 09:07:32;;;;;;;;;;;;;;;27.66;45.54;96477.20;606791;233;68424;-69
2022/12/15 09:09:59;;;;;;;;;;;;;;;27.67;43.92;96478.80;604993;234;66882;-69
2022/12/15 09:12:27;;;;;;;;;;;;;;;27.67;45.31;96484.98;604990;234;62747;-70
2022/12/15 09:14:54;;;;;;;;;;;;;;;27.68;44.77;96481.15;605029;234;64722;-68
2022/12/15 09:17:22;;;;;;;;;;;;;;;27.70;45.08;96488.15;605037;234;64709;-69
2022/12/15 09:19:49;;;;;;;;;;;;;;;27.71;45.79;96484.32;604898;234;62738;-70
2022/12/15 09:22:17;;;;;;;;;;;;;;;27.73;46.22;96471.30;605022;234;65391;-69
2022/12/15 09:24:45;;;;;;;;;;;;;;;27.73;44.82;96477.48;604860;234;67059;-72
2022/12/15 09:27:14;;;;;;;;;;;;;;;27.76;45.34;96481.44;604872;234;62789;-69
2022/12/15 09:29:42;;;;;;;;;;;;;;;27.77;45.99;96481.09;605007;234;64645;-68
2022/12/15 09:32:09;;;;;;;;;;;;;;;27.78;43.99;96473.80;604977;234;64930;-71
2022/12/15 09:34:37;;;;;;;;;;;;;;;27.79;45.83;96480.77;604931;234;63021;-69
2022/12/15 09:37:04;;;;;;;;;;;;;;;27.79;45.18;96476.16;604966;234;65244;-69
2022/12/15 09:39:31;;;;;;;;;;;;;;;27.82;44.10;96475.53;604900;234;64815;-70
2022/12/15 09:41:59;;;;;;;;;;;;;;;27.85;46.35;96466.77;605020;234;65892;-70
2022/12/15 09:44:28;;;;;;;;;;;;;;;27.87;44.91;96472.64;605008;234;65016;-68
2022/12/15 09:47:07;;;;;;;;;;;;;;;27.89;45.57;96466.92;604959;234;66254;-67
2022/12/15 09:49:42;;;;;;;;;;;;;;;27.93;42.45;96464.34;604947;234;62929;-71
2022/12/15 09:52:20;;;;;;;;;;;;;;;27.94;45.47;96466.73;602375;234;67307;-70
2022/12/15 09:54:47;;;;;;;;;;;;;;;27.94;46.44;96477.53;604956;234;67050;-72
2022/12/15 09:57:17;;;;;;;;;;;;;;;27.95;45.77;96470.21;604999;234;65208;-68
2022/12/15 09:59:46;;;;;;;;;;;;;;;27.95;45.07;96468.30;603108;234;67193;-70
2022/12/15 10:02:30;;;;;;;;;;;;;;;27.97;46.76;96468.77;595125;234;64883;-69
2022/12/15 10:04:59;;;;;;;;;;;;;;;27.97;46.59;96474.17;604963;234;65011;-70
2022/12/15 10:07:46;;;;;;;;;;;;;;;27.97;46.57;96474.17;604663;234;67277;-69
2022/12/15 10:10:23;;;;;;;;;;;;;;;27.99;44.73;96469.23;604908;234;66873;-68
2022/12/15 10:12:52;;;;;;;;;;;;;;;28.02;45.88;96465.05;604936;234;62749;-69
2022/12/15 10:15:22;;;;;;;;;;;;;;;28.04;42.05;96469.01;604956;234;67377;-69
2022/12/15 10:17:53;;;;;;;;;;;;;;;28.06;45.97;96471.39;604931;234;66706;-69
2022/12/15 10:20:23;;;;;;;;;;;;;;;28.07;46.35;96476.48;604714;234;65177;-68
2022/12/15 10:22:50;;;;;;;;;;;;;;;28.09;45.45;96473.43;604935;234;67267;-73
2022/12/15 10:25:26;;;;;;;;;;;;;;;28.10;45.07;96475.81;604895;234;67508;-72
2022/12/15 10:28:07;;;;;;;;;;;;;;;28.10;46.60;96491.20;602903;234;62772;-71
2022/12/15 10:30:35;;;;;;;;;;;;;;;28.13;43.52;96484.36;594472;234;67214;-71
2022/12/15 10:33:13;;;;;;;;;;;;;;;28.12;46.55;96480.87;604965;234;67003;-70
2022/12/15 10:35:42;;;;;;;;;;;;;;;28.14;44.20;96469.75;604821;234;65065;-69
2022/12/15 10:38:17;;;;;;;;;;;;;;;28.14;46.05;96469.75;604896;234;64707;-72
2022/12/15 10:40:46;;;;;;;;;;;;;;;28.16;47.77;96468.30;604729;234;67139;-69
2022/12/15 10:43:15;;;;;;;;;;;;;;;28.17;45.21;96469.08;604943;234;65068;-70
2022/12/15 10:45:42;;;;;;;;;;;;;;;28.17;45.91;96461.77;604949;234;65455;-69
2022/12/15 10:48:14;;;;;;;;;;;;;;;28.17;44.56;96469.87;604965;234;67086;-71
2022/12/15 10:50:42;;;;;;;;;;;;;;;28.19;46.36;96469.55;603551;233;64897;-72
2022/12/15 10:53:09;;;;;;;;;;;;;;;28.18;46.47;96467.95;604826;234;67120;-72
2022/12/15 10:55:38;;;;;;;;;;;;;;;28.19;46.62;96467.63;604793;234;66931;-70
2022/12/15 10:58:19;;;;;;;;;;;;;;;28.20;46.51;96465.72;604977;234;64967;-71
2022/12/15 11:00:47;;;;;;;;;;;;;;;28.19;45.09;96464.93;604980;234;65305;-73
2022/12/15 11:03:22;;;;;;;;;;;;;;;28.19;46.19;96453.34;604818;234;64946;-70
2022/12/15 11:05:52;;;;;;;;;;;;;;;28.18;45.12;96451.73;604717;233;65125;-70
2022/12/15 11:08:21;;;;;;;;;;;;;;;28.17;44.96;96448.25;604815;234;67240;-72
2022/12/15 11:13:45;;;;;;;;;;;;;;;28.21;40.27;96445.67;604514;234;65163;-69
2022/12/15 11:16:17;;;;;;;;;;;;;;;28.27;39.76;96452.47;603374;234;68445;-71
2022/12/15 11:18:49;;;;;;;;;;;;;;;28.27;42.07;96450.55;604789;234;64963;-70
2022/12/15 11:21:20;;;;;;;;;;;;;;;28.26;44.18;96450.88;604918;234;65028;-70
2022/12/15 11:23:49;;;;;;;;;;;;;;;28.25;42.76;96454.70;604974;234;67960;-70
2022/12/15 11:26:24;;;;;;;;;;;;;;;28.28;42.94;96451.34;604971;234;66923;-69
2022/12/15 11:28:56;;;;;;;;;;;;;;;28.29;43.20;96450.20;604854;234;67462;-68
2022/12/15 11:31:37;;;;;;;;;;;;;;;28.31;43.52;96450.67;604989;234;67267;-68
2022/12/15 11:34:06;;;;;;;;;;;;;;;28.33;43.32;96451.92;604740;234;66918;-68
2022/12/15 11:36:35;;;;;;;;;;;;;;;28.33;44.72;96451.92;604874;234;65146;-68
2022/12/15 11:39:04;;;;;;;;;;;;;;;28.34;44.59;96448.08;604297;234;68127;-68
2022/12/15 11:41:33;;;;;;;;;;;;;;;28.33;43.93;96451.13;604783;234;65381;-68
2022/12/15 11:44:08;;;;;;;;;;;;;;;28.36;43.34;96441.58;605009;234;63106;-70
2022/12/15 11:46:52;;;;;;;;;;;;;;;28.40;43.32;96445.98;604718;234;67299;-70
2022/12/15 11:49:38;;;;;;;;;;;;;;;28.38;44.62;96445.53;604810;234;67130;-67
2022/12/15 11:52:07;;;;;;;;;;;;;;;28.39;44.29;96447.09;604936;234;65083;-68
2022/12/15 11:54:36;;;;;;;;;;;;;;;28.41;44.58;96447.56;604850;234;65086;-68
2022/12/15 11:57:11;;;;;;;;;;;;;;;28.49;43.65;96444.02;604908;234;64970;-68
2022/12/15 11:59:41;;;;;;;;;;;;;;;28.51;44.65;96444.47;605044;234;65077;-68
2022/12/15 12:02:19;;;;;;;;;;;;;;;28.54;44.51;96457.31;600433;233;64771;-69
2022/12/15 12:04:48;;;;;;;;;;;;;;;28.60;44.20;96454.41;604952;234;64980;-68
2022/12/15 12:07:20;;;;;;;;;;;;;;;28.62;44.34;96457.54;595218;233;62924;-68
2022/12/15 12:09:58;;;;;;;;;;;;;;;28.64;44.51;96444.48;604938;234;67447;-68
2022/12/15 12:12:27;;;;;;;;;;;;;;;28.65;44.33;96435.27;605026;234;67129;-68
2022/12/15 12:14:59;;;;;;;;;;;;;;;28.66;44.37;96443.03;604963;234;65035;-66
2022/12/15 12:17:31;;;;;;;;;;;;;;;28.68;45.35;96442.70;604637;234;67402;-68
2022/12/15 12:19:59;;;;;;;;;;;;;;;28.69;44.75;96446.98;604801;234;67044;-66
2022/12/15 12:22:31;;;;;;;;;;;;;;;28.71;45.35;96453.63;604951;234;63812;-67
2022/12/15 12:25:15;;;;;;;;;;;;;;;28.72;44.83;96451.72;604743;233;66980;-67
2022/12/15 12:27:44;;;;;;;;;;;;;;;28.75;45.07;96453.75;604952;234;65826;-66
2022/12/15 12:30:14;;;;;;;;;;;;;;;28.76;44.29;96455.34;605064;234;65052;-65
2022/12/15 12:32:55;;;;;;;;;;;;;;;28.77;45.54;96454.20;604897;234;65093;-66
2022/12/15 12:35:39;;;;;;;;;;;;;;;28.75;45.68;96456.45;594556;234;67014;-67
2022/12/15 12:38:08;;;;;;;;;;;;;;;28.75;45.46;96464.56;604986;234;65244;-68
2022/12/15 12:40:38;;;;;;;;;;;;;;;28.75;44.94;96470.75;604879;234;45721;-68
2022/12/15 12:43:08;;;;;;;;;;;;;;;28.76;45.66;96475.05;604983;234;64962;-68
2022/12/15 12:45:46;;;;;;;;;;;;;;;28.76;45.91;96476.98;604784;234;63034;-68
2022/12/15 12:48:15;;;;;;;;;;;;;;;28.79;44.83;96473.59;604975;234;67270;-68
2022/12/15 12:50:42;;;;;;;;;;;;;;;28.80;44.92;96482.49;604638;234;66786;-69
2022/12/15 12:53:11;;;;;;;;;;;;;;;28.81;45.36;96487.58;604972;234;65064;-68
2022/12/15 12:55:40;;;;;;;;;;;;;;;28.85;45.16;96485.77;604514;234;64995;-69
2022/12/15 12:58:25;;;;;;;;;;;;;;;28.86;45.29;96495.45;604973;234;67346;-68
2022/12/15 13:01:07;;;;;;;;;;;;;;;28.84;45.69;96505.84;604906;234;65073;-67
2022/12/15 13:03:36;;;;;;;;;;;;;;;28.84;43.82;96519.36;594463;234;67137;-67
2022/12/15 13:06:05;;;;;;;;;;;;;;;28.82;44.68;96518.11;604916;234;72531;-68
2022/12/15 13:08:54;;;;;;;;;;;;;;;28.82;44.31;96520.81;604130;234;62926;-68
2022/12/15 13:11:29;;;;;;;;;;;;;;;28.77;45.78;96516.40;604853;234;67044;-66
2022/12/15 13:13:56;;;;;;;;;;;;;;;28.79;45.37;96519.56;602270;234;64585;-73
2022/12/15 13:16:25;;;;;;;;;;;;;;;28.82;45.20;96526.22;604956;234;62909;-66
2022/12/15 13:19:05;;;;;;;;;;;;;;;28.82;45.35;96532.42;605012;234;64070;-68
2022/12/15 13:21:43;;;;;;;;;;;;;;;28.80;41.19;96537.36;604854;234;64839;-68
2022/12/15 13:24:27;;;;;;;;;;;;;;;28.82;40.01;96535.13;604730;234;63042;-67
2022/12/15 13:27:05;;;;;;;;;;;;;;;28.83;44.67;96538.61;589324;239;67257;-66
2022/12/15 13:29:33;;;;;;;;;;;;;;;28.83;42.43;96536.69;600894;234;64825;-69
2022/12/15 13:32:01;;;;;;;;;;;;;;;28.80;45.52;96539.28;604966;234;65378;-69
2022/12/15 13:34:30;;;;;;;;;;;;;;;28.77;43.59;96546.14;604990;234;66784;-68
2022/12/15 13:36:59;;;;;;;;;;;;;;;28.75;44.39;96548.39;604683;234;66879;-68
2022/12/15 13:39:31;;;;;;;;;;;;;;;28.75;42.70;96543.77;604952;234;65019;-67
2022/12/15 13:42:03;;;;;;;;;;;;;;;28.79;43.29;96553.94;604912;234;65024;-69
2022/12/15 13:44:32;;;;;;;;;;;;;;;28.76;43.61;96556.18;604943;234;66873;-70
2022/12/15 13:47:08;;;;;;;;;;;;;;;28.80;43.26;96547.39;604962;234;65116;-70
2022/12/15 13:49:36;;;;;;;;;;;;;;;28.74;44.20;96547.60;604893;234;65009;-68
2022/12/15 13:52:06;;;;;;;;;;;;;;;28.75;43.92;96553.80;604983;234;64924;-70
2022/12/15 13:54:36;;;;;;;;;;;;;;;28.75;44.09;96553.80;606033;233;65043;-69
2022/12/15 13:57:11;;;;;;;;;;;;;;;28.78;44.00;96553.12;607151;233;67299;-67
2022/12/15 13:59:41;;;;;;;;;;;;;;;28.82;43.51;96554.05;607288;233;67019;-68
2022/12/15 14:02:25;;;;;;;;;;;;;;;28.73;44.44;96556.84;607289;233;63649;-67
2022/12/15 14:05:06;;;;;;;;;;;;;;;28.79;43.89;96560.12;607192;233;67268;-67
2022/12/15 14:07:34;;;;;;;;;;;;;;;28.82;43.85;96570.28;607350;233;64573;-68
2022/12/15 14:10:03;;;;;;;;;;;;;;;28.79;45.22;96575.57;607244;233;63047;-67
2022/12/15 14:12:30;;;;;;;;;;;;;;;28.78;44.88;96566.64;607101;233;64895;-68
2022/12/15 14:14:58;;;;;;;;;;;;;;;28.80;44.54;96572.52;607254;233;65165;-69
2022/12/15 14:17:27;;;;;;;;;;;;;;;28.82;44.29;96581.09;607252;233;65070;-68
2022/12/15 14:19:55;;;;;;;;;;;;;;;28.82;45.23;96586.50;607256;233;67221;-67
2022/12/15 14:22:24;;;;;;;;;;;;;;;28.85;43.10;96579.64;607252;233;64952;-64
2022/12/15 14:24:53;;;;;;;;;;;;;;;28.85;44.34;96579.64;607248;233;65046;-70
2022/12/15 14:27:25;;;;;;;;;;;;;;;28.84;44.55;96580.75;607048;233;67270;-66
2022/12/15 14:30:13;;;;;;;;;;;;;;;28.86;42.71;96582.00;607267;233;67203;-67
2022/12/15 14:32:42;;;;;;;;;;;;;;;28.88;43.01;96582.46;607266;233;62785;-66
2022/12/15 14:35:14;;;;;;;;;;;;;;;28.86;44.65;96582.00;607308;233;66878;-67
2022/12/15 14:37:42;;;;;;;;;;;;;;;28.84;44.58;96581.56;607351;233;64859;-67
2022/12/15 14:40:17;;;;;;;;;;;;;;;28.83;45.19;96579.96;607174;233;65072;-72
2022/12/15 14:42:46;;;;;;;;;;;;;;;28.88;44.33;96585.17;607241;233;65245;-71
2022/12/15 14:45:23;;;;;;;;;;;;;;;28.84;44.40;96595.09;607283;233;64634;-67
2022/12/15 14:47:55;;;;;;;;;;;;;;;28.89;42.51;96603.00;607227;233;62724;-70
2022/12/15 14:50:24;;;;;;;;;;;;;;;28.87;44.75;96594.41;606175;233;64573;-69
2022/12/15 14:52:53;;;;;;;;;;;;;;;28.85;45.01;96596.66;607285;233;66991;-67
2022/12/15 14:55:22;;;;;;;;;;;;;;;28.87;44.24;96605.23;607050;233;62919;-74
2022/12/15 14:57:52;;;;;;;;;;;;;;;28.85;44.51;96603.98;607180;233;67176;-69
2022/12/15 15:00:27;;;;;;;;;;;;;;;28.89;44.47;96608.41;607193;233;67045;-72
2022/12/15 15:03:12;;;;;;;;;;;;;;;28.89;44.64;96618.41;607254;233;62839;-71
2022/12/15 15:05:46;;;;;;;;;;;;;;;28.88;43.14;96622.25;607222;233;67126;-71
2022/12/15 15:08:15;;;;;;;;;;;;;;;28.89;43.19;96632.75;606841;233;66951;-68
2022/12/15 15:10:42;;;;;;;;;;;;;;;28.92;42.97;96628.56;607281;233;65154;-68
2022/12/15 15:13:20;;;;;;;;;;;;;;;28.92;42.83;96626.67;607273;233;67263;-70
2022/12/15 15:15:52;;;;;;;;;;;;;;;28.93;43.57;96625.53;607228;233;67730;-68
2022/12/15 15:18:22;;;;;;;;;;;;;;;28.93;45.28;96625.53;607173;233;65037;-69
2022/12/15 15:20:52;;;;;;;;;;;;;;;28.89;44.53;96632.75;607115;233;67106;-70
2022/12/15 15:23:20;;;;;;;;;;;;;;;28.94;45.79;96627.11;607238;233;64482;-71
2022/12/15 15:25:53;;;;;;;;;;;;;;;28.96;43.52;96632.98;607276;233;64855;-69
2022/12/15 15:28:25;;;;;;;;;;;;;;;28.95;40.78;96638.74;606201;233;67190;-69